sensor_id;sensor_type;location;lat;lon;timestamp;pressure;altitude;pressure_sealevel;temperature;humidity
41898;BME280;27576;53.366;-1.498;2022-07-18T00:00:00;100724.69;;;23.96;40.99
41898;BME280;27576;53.366;-1.498;2022-07-18T00:02:26;100717.78;;;23.92;41.04
41898;BME280;27576;53.366;-1.498;2022-07-18T00:04:51;100693.63;;;23.77;40.87
41898;BME280;27576;53.366;-1.498;2022-07-18T00:07:17;100711.84;;;23.85;41.06
41898;BME280;27576;53.366;-1.498;2022-07-18T00:09:43;100720.50;;;23.90;40.85
41898;BME280;27576;53.366;-1.498;2022-07-18T00:12:10;100721.41;;;23.89;41.23
41898;BME280;27576;53.366;-1.498;2022-07-18T00:14:36;100715.38;;;23.86;41.25
41898;BME280;27576;53.366;-1.498;2022-07-18T00:17:02;100690.28;;;23.72;41.12
41898;BME280;27576;53.366;-1.498;2022-07-18T00:19:28;100679.81;;;23.69;41.62
41898;BME280;27576;53.366;-1.498;2022-07-18T00:21:54;100705.94;;;23.79;41.67
41898;BME280;27576;53.366;-1.498;2022-07-18T00:24:19;100696.34;;;23.76;41.88
41898;BME280;27576;53.366;-1.498;2022-07-18T00:26:45;100674.03;;;23.58;41.71
41898;BME280;27576;53.366;-1.498;2022-07-18T00:29:10;100702.72;;;23.70;41.71
41898;BME280;27576;53.366;-1.498;2022-07-18T00:31:36;100692.44;;;23.61;41.89
41898;BME280;27576;53.366;-1.498;2022-07-18T00:34:02;100701.97;;;23.67;42.04
41898;BME280;27576;53.366;-1.498;2022-07-18T00:36:28;100709.91;;;23.67;41.93
41898;BME280;27576;53.366;-1.498;2022-07-18T00:38:54;100693.53;;;23.56;42.03
41898;BME280;27576;53.366;-1.498;2022-07-18T00:41:19;100705.63;;;23.63;42.03
41898;BME280;27576;53.366;-1.498;2022-07-18T00:43:45;100713.59;;;23.61;43.54
41898;BME280;27576;53.366;-1.498;2022-07-18T00:46:10;100711.00;;;23.60;44.11
41898;BME280;27576;53.366;-1.498;2022-07-18T00:48:38;100694.72;;;23.47;42.95
41898;BME280;27576;53.366;-1.498;2022-07-18T00:51:03;100687.81;;;23.43;43.04
41898;BME280;27576;53.366;-1.498;2022-07-18T00:53:29;100702.44;;;23.53;42.82
41898;BME280;27576;53.366;-1.498;2022-07-18T00:55:55;100685.03;;;23.46;42.73
41898;BME280;27576;53.366;-1.498;2022-07-18T00:58:20;100689.66;;;23.41;43.35
41898;BME280;27576;53.366;-1.498;2022-07-18T01:00:46;100708.72;;;23.50;42.91
41898;BME280;27576;53.366;-1.498;2022-07-18T01:03:30;100704.44;;;23.46;43.23
41898;BME280;27576;53.366;-1.498;2022-07-18T01:05:56;100686.34;;;23.34;43.15
41898;BME280;27576;53.366;-1.498;2022-07-18T01:08:21;100694.00;;;23.42;43.27
41898;BME280;27576;53.366;-1.498;2022-07-18T01:10:47;100693.38;;;23.35;43.17
41898;BME280;27576;53.366;-1.498;2022-07-18T01:13:12;100695.03;;;23.38;43.47
41898;BME280;27576;53.366;-1.498;2022-07-18T01:15:37;100692.56;;;23.33;43.56
41898;BME280;27576;53.366;-1.498;2022-07-18T01:18:04;100696.94;;;23.34;43.84
41898;BME280;27576;53.366;-1.498;2022-07-18T01:20:30;100697.91;;;23.32;43.53
41898;BME280;27576;53.366;-1.498;2022-07-18T01:22:57;100691.00;;;23.27;43.57
41898;BME280;27576;53.366;-1.498;2022-07-18T01:25:22;100693.66;;;23.27;43.81
41898;BME280;27576;53.366;-1.498;2022-07-18T01:27:48;100692.78;;;23.27;44.16
41898;BME280;27576;53.366;-1.498;2022-07-18T01:30:13;100697.22;;;23.26;43.84
41898;BME280;27576;53.366;-1.498;2022-07-18T01:32:40;100689.31;;;23.25;43.98
41898;BME280;27576;53.366;-1.498;2022-07-18T01:35:06;100681.56;;;23.20;43.89
41898;BME280;27576;53.366;-1.498;2022-07-18T01:37:31;100681.56;;;23.20;43.78
41898;BME280;27576;53.366;-1.498;2022-07-18T01:39:57;100692.03;;;23.23;43.56
41898;BME280;27576;53.366;-1.498;2022-07-18T01:42:22;100677.38;;;23.15;43.44
41898;BME280;27576;53.366;-1.498;2022-07-18T01:44:48;100646.94;;;23.03;43.61
41898;BME280;27576;53.366;-1.498;2022-07-18T01:47:14;100683.28;;;23.21;43.60
41898;BME280;27576;53.366;-1.498;2022-07-18T01:49:40;100672.78;;;23.20;43.48
41898;BME280;27576;53.366;-1.498;2022-07-18T01:52:07;100668.59;;;23.13;43.38
41898;BME280;27576;53.366;-1.498;2022-07-18T01:54:33;100664.88;;;23.18;43.59
41898;BME280;27576;53.366;-1.498;2022-07-18T01:57:01;100625.22;;;22.93;43.49
41898;BME280;27576;53.366;-1.498;2022-07-18T01:59:27;100658.03;;;23.13;43.27
41898;BME280;27576;53.366;-1.498;2022-07-18T02:01:52;100662.41;;;23.14;43.16
41898;BME280;27576;53.366;-1.498;2022-07-18T02:04:18;100613.97;;;22.87;43.55
41898;BME280;27576;53.366;-1.498;2022-07-18T02:06:44;100631.44;;;22.92;44.05
41898;BME280;27576;53.366;-1.498;2022-07-18T02:09:10;100620.25;;;22.84;43.86
41898;BME280;27576;53.366;-1.498;2022-07-18T02:11:36;100661.81;;;23.06;43.74
41898;BME280;27576;53.366;-1.498;2022-07-18T02:14:03;100661.91;;;23.02;43.86
41898;BME280;27576;53.366;-1.498;2022-07-18T02:16:29;100640.34;;;22.88;43.56
41898;BME280;27576;53.366;-1.498;2022-07-18T02:18:55;100643.00;;;22.88;43.95
41898;BME280;27576;53.366;-1.498;2022-07-18T02:21:21;100644.72;;;22.89;43.32
41898;BME280;27576;53.366;-1.498;2022-07-18T02:23:46;100655.22;;;22.92;42.90
41898;BME280;27576;53.366;-1.498;2022-07-18T02:26:12;100633.50;;;22.83;42.78
41898;BME280;27576;53.366;-1.498;2022-07-18T02:28:38;100644.81;;;22.86;42.49
41898;BME280;27576;53.366;-1.498;2022-07-18T02:31:04;100639.63;;;22.83;42.23
41898;BME280;27576;53.366;-1.498;2022-07-18T02:33:30;100639.63;;;22.83;41.86
41898;BME280;27576;53.366;-1.498;2022-07-18T02:35:56;100611.13;;;22.68;41.09
41898;BME280;27576;53.366;-1.498;2022-07-18T02:38:21;100628.34;;;22.79;40.04
41898;BME280;27576;53.366;-1.498;2022-07-18T02:40:47;100633.63;;;22.79;39.99
41898;BME280;27576;53.366;-1.498;2022-07-18T02:43:12;100629.19;;;22.80;38.83
41898;BME280;27576;53.366;-1.498;2022-07-18T02:45:38;100625.63;;;22.81;38.85
41898;BME280;27576;53.366;-1.498;2022-07-18T02:48:03;100607.59;;;22.67;38.33
41898;BME280;27576;53.366;-1.498;2022-07-18T02:50:29;100619.56;;;22.77;38.19
41898;BME280;27576;53.366;-1.498;2022-07-18T02:52:54;100583.28;;;22.58;38.27
41898;BME280;27576;53.366;-1.498;2022-07-18T02:55:22;100619.47;;;22.81;37.81
41898;BME280;27576;53.366;-1.498;2022-07-18T02:57:48;100615.16;;;22.78;38.29
41898;BME280;27576;53.366;-1.498;2022-07-18T03:00:14;100598.78;;;22.68;37.02
41898;BME280;27576;53.366;-1.498;2022-07-18T03:02:40;100605.50;;;22.77;37.03
41898;BME280;27576;53.366;-1.498;2022-07-18T03:05:06;100583.22;;;22.59;37.09
41898;BME280;27576;53.366;-1.498;2022-07-18T03:07:32;100586.78;;;22.58;37.30
41898;BME280;27576;53.366;-1.498;2022-07-18T03:09:57;100611.81;;;22.73;37.31
41898;BME280;27576;53.366;-1.498;2022-07-18T03:12:23;100605.88;;;22.66;36.50
41898;BME280;27576;53.366;-1.498;2022-07-18T03:14:48;100611.13;;;22.68;36.60
41898;BME280;27576;53.366;-1.498;2022-07-18T03:17:14;100590.38;;;22.55;35.75
41898;BME280;27576;53.366;-1.498;2022-07-18T03:19:39;100596.53;;;22.56;35.53
41898;BME280;27576;53.366;-1.498;2022-07-18T03:22:05;100607.75;;;22.63;35.36
41898;BME280;27576;53.366;-1.498;2022-07-18T03:24:31;100611.31;;;22.62;35.96
41898;BME280;27576;53.366;-1.498;2022-07-18T03:26:56;100575.78;;;22.45;35.91
41898;BME280;27576;53.366;-1.498;2022-07-18T03:29:21;100601.78;;;22.58;35.90
41898;BME280;27576;53.366;-1.498;2022-07-18T03:31:47;100592.22;;;22.53;35.83
41898;BME280;27576;53.366;-1.498;2022-07-18T03:34:12;100560.34;;;22.33;35.88
41898;BME280;27576;53.366;-1.498;2022-07-18T03:36:38;100592.31;;;22.50;35.66
41898;BME280;27576;53.366;-1.498;2022-07-18T03:39:05;100590.59;;;22.49;35.63
41898;BME280;27576;53.366;-1.498;2022-07-18T03:41:31;100580.22;;;22.43;35.18
41898;BME280;27576;53.366;-1.498;2022-07-18T03:43:56;100586.28;;;22.47;35.48
41898;BME280;27576;53.366;-1.498;2022-07-18T03:46:22;100581.09;;;22.44;35.11
41898;BME280;27576;53.366;-1.498;2022-07-18T03:48:48;100585.50;;;22.43;35.12
41898;BME280;27576;53.366;-1.498;2022-07-18T03:51:14;100574.34;;;22.35;36.41
41898;BME280;27576;53.366;-1.498;2022-07-18T03:53:40;100588.22;;;22.42;36.34
41898;BME280;27576;53.366;-1.498;2022-07-18T03:56:05;100585.75;;;22.36;36.97
41898;BME280;27576;53.366;-1.498;2022-07-18T03:58:31;100579.84;;;22.29;36.89
41898;BME280;27576;53.366;-1.498;2022-07-18T04:00:56;100596.47;;;22.31;37.09
41898;BME280;27576;53.366;-1.498;2022-07-18T04:03:22;100600.84;;;22.32;38.18
41898;BME280;27576;53.366;-1.498;2022-07-18T04:05:47;100584.53;;;22.19;38.40
41898;BME280;27576;53.366;-1.498;2022-07-18T04:08:13;100594.94;;;22.24;38.82
41898;BME280;27576;53.366;-1.498;2022-07-18T04:10:38;100594.31;;;22.17;36.72
41898;BME280;27576;53.366;-1.498;2022-07-18T04:13:06;100589.13;;;22.13;36.38
41898;BME280;27576;53.366;-1.498;2022-07-18T04:15:32;100590.03;;;22.12;37.35
41898;BME280;27576;53.366;-1.498;2022-07-18T04:17:58;100593.66;;;22.09;36.11
41898;BME280;27576;53.366;-1.498;2022-07-18T04:20:23;100588.63;;;22.01;35.63
41898;BME280;27576;53.366;-1.498;2022-07-18T04:22:51;100586.91;;;21.99;35.39
41898;BME280;27576;53.366;-1.498;2022-07-18T04:25:19;100589.50;;;22.00;35.24
41898;BME280;27576;53.366;-1.498;2022-07-18T04:27:45;100589.50;;;22.00;34.98
41898;BME280;27576;53.366;-1.498;2022-07-18T04:30:12;100587.69;;;22.02;34.93
41898;BME280;27576;53.366;-1.498;2022-07-18T04:32:38;100581.66;;;21.99;34.61
41898;BME280;27576;53.366;-1.498;2022-07-18T04:35:05;100560.88;;;21.88;34.54
41898;BME280;27576;53.366;-1.498;2022-07-18T04:37:31;100548.78;;;21.81;34.63
41898;BME280;27576;53.366;-1.498;2022-07-18T04:39:58;100580.78;;;21.98;34.82
41898;BME280;27576;53.366;-1.498;2022-07-18T04:42:24;100565.25;;;21.89;34.69
41898;BME280;27576;53.366;-1.498;2022-07-18T04:44:49;100561.59;;;21.93;34.71
41898;BME280;27576;53.366;-1.498;2022-07-18T04:47:15;100561.59;;;21.93;35.20
41898;BME280;27576;53.366;-1.498;2022-07-18T04:49:40;100567.53;;;22.00;34.93
41898;BME280;27576;53.366;-1.498;2022-07-18T04:52:07;100563.13;;;22.00;34.89
41898;BME280;27576;53.366;-1.498;2022-07-18T04:54:32;100558.81;;;21.98;34.68
41898;BME280;27576;53.366;-1.498;2022-07-18T04:56:57;100546.72;;;21.91;34.24
41898;BME280;27576;53.366;-1.498;2022-07-18T04:59:23;100557.84;;;22.00;34.17
41898;BME280;27576;53.366;-1.498;2022-07-18T05:01:48;100544.00;;;21.94;34.53
41898;BME280;27576;53.366;-1.498;2022-07-18T05:04:14;100563.03;;;22.03;34.52
41898;BME280;27576;53.366;-1.498;2022-07-18T05:06:39;100553.28;;;22.05;34.64
41898;BME280;27576;53.366;-1.498;2022-07-18T05:09:05;100542.13;;;21.97;34.59
41898;BME280;27576;53.366;-1.498;2022-07-18T05:11:30;100550.56;;;22.09;34.75
41898;BME280;27576;53.366;-1.498;2022-07-18T05:13:55;100552.22;;;22.11;34.96
41898;BME280;27576;53.366;-1.498;2022-07-18T05:16:22;100549.66;;;22.10;36.13
41898;BME280;27576;53.366;-1.498;2022-07-18T05:18:47;100526.28;;;21.97;35.44
41898;BME280;27576;53.366;-1.498;2022-07-18T05:21:13;100548.66;;;22.14;34.64
41898;BME280;27576;53.366;-1.498;2022-07-18T05:23:38;100552.09;;;22.16;35.63
41898;BME280;27576;53.366;-1.498;2022-07-18T05:26:04;100546.72;;;22.19;36.02
41898;BME280;27576;53.366;-1.498;2022-07-18T05:28:29;100550.19;;;22.21;34.86
41898;BME280;27576;53.366;-1.498;2022-07-18T05:30:55;100527.53;;;22.14;34.54
41898;BME280;27576;53.366;-1.498;2022-07-18T05:33:21;100546.56;;;22.23;33.82
41898;BME280;27576;53.366;-1.498;2022-07-18T05:35:46;100556.09;;;22.29;34.14
41898;BME280;27576;53.366;-1.498;2022-07-18T05:38:12;100523.03;;;22.17;33.52
41898;BME280;27576;53.366;-1.498;2022-07-18T05:40:37;100552.25;;;22.38;34.18
41898;BME280;27576;53.366;-1.498;2022-07-18T05:43:03;100551.25;;;22.42;33.59
41898;BME280;27576;53.366;-1.498;2022-07-18T05:45:28;100549.31;;;22.47;34.23
41898;BME280;27576;53.366;-1.498;2022-07-18T05:47:54;100540.53;;;22.46;33.11
41898;BME280;27576;53.366;-1.498;2022-07-18T05:50:20;100548.88;;;22.59;32.91
41898;BME280;27576;53.366;-1.498;2022-07-18T05:52:46;100543.47;;;22.64;34.54
41898;BME280;27576;53.366;-1.498;2022-07-18T05:55:12;100530.34;;;22.61;34.48
41898;BME280;27576;53.366;-1.498;2022-07-18T05:57:37;100527.28;;;22.73;34.09
41898;BME280;27576;53.366;-1.498;2022-07-18T06:00:04;100537.59;;;22.79;35.07
41898;BME280;27576;53.366;-1.498;2022-07-18T06:02:31;100534.19;;;22.77;34.79
41898;BME280;27576;53.366;-1.498;2022-07-18T06:04:56;100547.00;;;22.88;35.64
41898;BME280;27576;53.366;-1.498;2022-07-18T06:07:22;100538.94;;;22.92;36.24
41898;BME280;27576;53.366;-1.498;2022-07-18T06:09:47;100543.38;;;22.90;36.97
41898;BME280;27576;53.366;-1.498;2022-07-18T06:12:14;100518.09;;;22.83;36.72
41898;BME280;27576;53.366;-1.498;2022-07-18T06:14:40;100537.00;;;22.97;37.14
41898;BME280;27576;53.366;-1.498;2022-07-18T06:17:06;100550.56;;;23.12;37.26
41898;BME280;27576;53.366;-1.498;2022-07-18T06:19:31;100525.50;;;22.98;37.62
41898;BME280;27576;53.366;-1.498;2022-07-18T06:21:57;100557.03;;;23.28;37.28
41898;BME280;27576;53.366;-1.498;2022-07-18T06:24:23;100527.25;;;23.23;38.26
41898;BME280;27576;53.366;-1.498;2022-07-18T06:26:49;100550.91;;;23.49;39.78
41898;BME280;27576;53.366;-1.498;2022-07-18T06:29:15;100547.09;;;23.57;37.45
41898;BME280;27576;53.366;-1.498;2022-07-18T06:31:41;100548.53;;;23.65;37.47
41898;BME280;27576;53.366;-1.498;2022-07-18T06:34:06;100542.22;;;23.69;36.56
41898;BME280;27576;53.366;-1.498;2022-07-18T06:36:32;100534.72;;;23.81;37.38
41898;BME280;27576;53.366;-1.498;2022-07-18T06:38:57;100558.56;;;24.03;36.56
41898;BME280;27576;53.366;-1.498;2022-07-18T06:41:23;100547.78;;;24.07;36.58
41898;BME280;27576;53.366;-1.498;2022-07-18T06:43:49;100548.00;;;24.23;36.82
41898;BME280;27576;53.366;-1.498;2022-07-18T06:46:14;100552.78;;;24.35;36.53
41898;BME280;27576;53.366;-1.498;2022-07-18T06:48:40;100548.06;;;24.43;34.76
41898;BME280;27576;53.366;-1.498;2022-07-18T06:51:07;100532.84;;;24.48;34.24
41898;BME280;27576;53.366;-1.498;2022-07-18T06:53:33;100550.72;;;24.64;35.69
41898;BME280;27576;53.366;-1.498;2022-07-18T06:55:59;100554.31;;;24.63;33.77
41898;BME280;27576;53.366;-1.498;2022-07-18T06:58:28;100534.44;;;24.53;34.82
41898;BME280;27576;53.366;-1.498;2022-07-18T07:00:56;100542.22;;;24.56;34.67
41898;BME280;27576;53.366;-1.498;2022-07-18T07:03:21;100534.91;;;24.62;34.53
41898;BME280;27576;53.366;-1.498;2022-07-18T07:05:47;100551.97;;;24.76;34.58
41898;BME280;27576;53.366;-1.498;2022-07-18T07:08:12;100524.34;;;24.81;35.20
41898;BME280;27576;53.366;-1.498;2022-07-18T07:10:38;100540.88;;;25.07;33.55
41898;BME280;27576;53.366;-1.498;2022-07-18T07:13:04;100547.25;;;25.23;33.54
41898;BME280;27576;53.366;-1.498;2022-07-18T07:15:29;100532.25;;;25.22;32.63
41898;BME280;27576;53.366;-1.498;2022-07-18T07:17:55;100531.47;;;25.20;32.50
41898;BME280;27576;53.366;-1.498;2022-07-18T07:20:20;100538.41;;;25.22;31.54
41898;BME280;27576;53.366;-1.498;2022-07-18T07:22:50;100549.63;;;25.29;31.29
41898;BME280;27576;53.366;-1.498;2022-07-18T07:25:17;100530.09;;;25.30;32.04
41898;BME280;27576;53.366;-1.498;2022-07-18T07:27:43;100550.41;;;25.50;32.02
41898;BME280;27576;53.366;-1.498;2022-07-18T07:30:10;100549.03;;;25.60;31.54
41898;BME280;27576;53.366;-1.498;2022-07-18T07:32:37;100540.34;;;25.76;31.93
41898;BME280;27576;53.366;-1.498;2022-07-18T07:35:04;100547.31;;;25.97;31.55
41898;BME280;27576;53.366;-1.498;2022-07-18T07:37:32;100528.66;;;26.16;31.38
41898;BME280;27576;53.366;-1.498;2022-07-18T07:39:58;100527.75;;;26.34;31.84
41898;BME280;27576;53.366;-1.498;2022-07-18T07:42:24;100517.19;;;26.33;31.13
41898;BME280;27576;53.366;-1.498;2022-07-18T07:44:50;100535.88;;;26.49;31.17
41898;BME280;27576;53.366;-1.498;2022-07-18T07:47:15;100530.03;;;26.42;30.13
41898;BME280;27576;53.366;-1.498;2022-07-18T07:49:41;100516.66;;;26.26;30.91
41898;BME280;27576;53.366;-1.498;2022-07-18T07:52:06;100538.13;;;26.39;30.73
41898;BME280;27576;53.366;-1.498;2022-07-18T07:54:32;100539.84;;;26.40;31.22
41898;BME280;27576;53.366;-1.498;2022-07-18T07:56:57;100520.03;;;26.30;30.82
41898;BME280;27576;53.366;-1.498;2022-07-18T07:59:22;100521.81;;;26.29;31.32
41898;BME280;27576;53.366;-1.498;2022-07-18T08:01:48;100538.63;;;26.47;30.91
41898;BME280;27576;53.366;-1.498;2022-07-18T08:04:13;100515.09;;;26.39;31.03
41898;BME280;27576;53.366;-1.498;2022-07-18T08:06:39;100543.72;;;26.69;30.66
41898;BME280;27576;53.366;-1.498;2022-07-18T08:09:04;100539.63;;;26.79;30.48
41898;BME280;27576;53.366;-1.498;2022-07-18T08:11:31;100531.25;;;26.87;30.38
41898;BME280;27576;53.366;-1.498;2022-07-18T08:13:57;100524.13;;;26.87;30.09
41898;BME280;27576;53.366;-1.498;2022-07-18T08:16:22;100519.94;;;26.99;29.79
41898;BME280;27576;53.366;-1.498;2022-07-18T08:18:48;100535.66;;;27.21;29.32
41898;BME280;27576;53.366;-1.498;2022-07-18T08:21:13;100536.88;;;27.31;29.11
41898;BME280;27576;53.366;-1.498;2022-07-18T08:23:39;100535.25;;;27.45;29.46
41898;BME280;27576;53.366;-1.498;2022-07-18T08:26:05;100501.00;;;27.38;29.46
41898;BME280;27576;53.366;-1.498;2022-07-18T08:28:30;100527.97;;;27.64;28.53
41898;BME280;27576;53.366;-1.498;2022-07-18T08:30:56;100524.09;;;27.70;28.45
41898;BME280;27576;53.366;-1.498;2022-07-18T08:33:21;100523.91;;;27.73;27.62
41898;BME280;27576;53.366;-1.498;2022-07-18T08:35:47;100505.28;;;27.73;28.01
41898;BME280;27576;53.366;-1.498;2022-07-18T08:38:12;100509.94;;;27.85;27.22
41898;BME280;27576;53.366;-1.498;2022-07-18T08:40:38;100530.69;;;27.94;26.65
41898;BME280;27576;53.366;-1.498;2022-07-18T08:43:03;100518.28;;;27.95;27.47
41898;BME280;27576;53.366;-1.498;2022-07-18T08:45:29;100515.91;;;28.04;28.57
41898;BME280;27576;53.366;-1.498;2022-07-18T08:47:55;100509.19;;;28.13;28.46
41898;BME280;27576;53.366;-1.498;2022-07-18T08:50:21;100516.97;;;28.32;28.15
41898;BME280;27576;53.366;-1.498;2022-07-18T08:52:46;100525.09;;;28.45;28.16
41898;BME280;27576;53.366;-1.498;2022-07-18T08:55:12;100516.88;;;28.49;28.56
41898;BME280;27576;53.366;-1.498;2022-07-18T08:57:39;100497.25;;;28.50;27.98
41898;BME280;27576;53.366;-1.498;2022-07-18T09:00:07;100518.31;;;28.69;27.90
41898;BME280;27576;53.366;-1.498;2022-07-18T09:02:33;100524.44;;;28.85;28.92
41898;BME280;27576;53.366;-1.498;2022-07-18T09:05:04;100513.94;;;28.97;29.70
41898;BME280;27576;53.366;-1.498;2022-07-18T09:07:32;100519.38;;;29.24;27.82
41898;BME280;27576;53.366;-1.498;2022-07-18T09:09:59;100514.69;;;29.42;28.06
41898;BME280;27576;53.366;-1.498;2022-07-18T09:12:26;100511.81;;;29.59;28.78
41898;BME280;27576;53.366;-1.498;2022-07-18T09:14:53;100504.44;;;29.77;27.12
41898;BME280;27576;53.366;-1.498;2022-07-18T09:17:23;100506.63;;;29.97;27.83
41898;BME280;27576;53.366;-1.498;2022-07-18T09:22:28;100512.38;;;30.18;25.97
41898;BME280;27576;53.366;-1.498;2022-07-18T09:25:00;100509.19;;;30.26;25.64
41898;BME280;27576;53.366;-1.498;2022-07-18T09:27:29;100494.75;;;30.28;26.13
41898;BME280;27576;53.366;-1.498;2022-07-18T09:33:06;100479.50;;;30.30;24.66
41898;BME280;27576;53.366;-1.498;2022-07-18T09:35:36;100500.44;;;30.49;24.43
41898;BME280;27576;53.366;-1.498;2022-07-18T09:38:05;100505.06;;;30.60;25.44
41898;BME280;27576;53.366;-1.498;2022-07-18T09:40:47;100494.16;;;30.63;24.98
41898;BME280;27576;53.366;-1.498;2022-07-18T09:43:15;100463.56;;;30.67;26.12
41898;BME280;27576;53.366;-1.498;2022-07-18T09:45:49;100489.56;;;30.91;23.35
41898;BME280;27576;53.366;-1.498;2022-07-18T09:48:19;100496.72;;;31.03;23.29
41898;BME280;27576;53.366;-1.498;2022-07-18T09:53:16;100500.22;;;31.16;22.67
41898;BME280;27576;53.366;-1.498;2022-07-18T09:55:49;100480.75;;;31.14;19.69
41898;BME280;27576;53.366;-1.498;2022-07-18T09:58:17;100482.69;;;31.12;19.65
41898;BME280;27576;53.366;-1.498;2022-07-18T10:00:43;100483.66;;;31.11;20.50
41898;BME280;27576;53.366;-1.498;2022-07-18T10:03:09;100488.88;;;31.25;19.94
41898;BME280;27576;53.366;-1.498;2022-07-18T10:05:37;100490.28;;;31.31;20.56
41898;BME280;27576;53.366;-1.498;2022-07-18T10:08:05;100489.84;;;31.37;20.85
41898;BME280;27576;53.366;-1.498;2022-07-18T10:10:31;100489.50;;;31.42;19.91
41898;BME280;27576;53.366;-1.498;2022-07-18T10:12:59;100491.22;;;31.43;19.72
41898;BME280;27576;53.366;-1.498;2022-07-18T10:15:27;100492.69;;;31.47;20.00
41898;BME280;27576;53.366;-1.498;2022-07-18T10:17:53;100499.81;;;31.59;21.68
41898;BME280;27576;53.366;-1.498;2022-07-18T10:20:25;100479.22;;;31.72;21.68
41898;BME280;27576;53.366;-1.498;2022-07-18T10:22:55;100485.88;;;31.91;20.56
41898;BME280;27576;53.366;-1.498;2022-07-18T10:25:21;100492.50;;;31.98;19.57
41898;BME280;27576;53.366;-1.498;2022-07-18T10:27:51;100489.81;;;31.98;20.04
41898;BME280;27576;53.366;-1.498;2022-07-18T10:30:17;100480.22;;;32.07;20.39
41898;BME280;27576;53.366;-1.498;2022-07-18T10:32:44;100483.34;;;32.24;21.13
41898;BME280;27576;53.366;-1.498;2022-07-18T10:35:15;100482.94;;;32.53;22.35
41898;BME280;27576;53.366;-1.498;2022-07-18T10:37:41;100488.09;;;32.67;20.31
41898;BME280;27576;53.366;-1.498;2022-07-18T10:40:28;100490.25;;;32.73;17.77
41898;BME280;27576;53.366;-1.498;2022-07-18T10:45:58;100468.31;;;32.91;20.62
41898;BME280;27576;53.366;-1.498;2022-07-18T10:51:02;100479.09;;;33.13;17.81
41898;BME280;27576;53.366;-1.498;2022-07-18T10:59:20;100470.25;;;33.45;17.39
41898;BME280;27576;53.366;-1.498;2022-07-18T11:01:54;100464.59;;;33.59;18.52
41898;BME280;27576;53.366;-1.498;2022-07-18T11:04:28;100462.97;;;33.68;16.26
41898;BME280;27576;53.366;-1.498;2022-07-18T11:07:03;100463.47;;;33.73;17.10
41898;BME280;27576;53.366;-1.498;2022-07-18T11:09:39;100444.44;;;33.65;15.27
41898;BME280;27576;53.366;-1.498;2022-07-18T11:12:40;100463.03;;;33.89;15.82
41898;BME280;27576;53.366;-1.498;2022-07-18T11:15:11;100458.91;;;33.85;15.46
41898;BME280;27576;53.366;-1.498;2022-07-18T11:17:58;100465.31;;;33.93;15.45
41898;BME280;27576;53.366;-1.498;2022-07-18T11:20:26;100461.53;;;33.96;16.65
41898;BME280;27576;53.366;-1.498;2022-07-18T11:22:51;100453.66;;;34.15;18.10
41898;BME280;27576;53.366;-1.498;2022-07-18T11:25:18;100451.59;;;34.29;16.32
41898;BME280;27576;53.366;-1.498;2022-07-18T11:27:44;100442.72;;;34.38;16.40
41898;BME280;27576;53.366;-1.498;2022-07-18T11:30:15;100445.09;;;34.52;16.67
41898;BME280;27576;53.366;-1.498;2022-07-18T11:32:41;100458.53;;;34.73;17.10
41898;BME280;27576;53.366;-1.498;2022-07-18T11:35:07;100451.03;;;34.77;16.67
41898;BME280;27576;53.366;-1.498;2022-07-18T11:37:35;100448.81;;;34.91;17.06
41898;BME280;27576;53.366;-1.498;2022-07-18T11:40:08;100444.22;;;35.03;15.33
41898;BME280;27576;53.366;-1.498;2022-07-18T11:42:38;100449.34;;;35.06;15.54
41898;BME280;27576;53.366;-1.498;2022-07-18T11:45:05;100442.19;;;34.96;15.37
41898;BME280;27576;53.366;-1.498;2022-07-18T11:47:47;100438.38;;;34.98;15.95
41898;BME280;27576;53.366;-1.498;2022-07-18T11:50:14;100428.50;;;35.08;15.76
41898;BME280;27576;53.366;-1.498;2022-07-18T11:52:40;100419.13;;;35.03;15.39
41898;BME280;27576;53.366;-1.498;2022-07-18T11:55:06;100421.25;;;34.99;15.73
41898;BME280;27576;53.366;-1.498;2022-07-18T11:57:32;100423.53;;;35.04;16.34
41898;BME280;27576;53.366;-1.498;2022-07-18T11:59:59;100431.34;;;35.16;17.97
41898;BME280;27576;53.366;-1.498;2022-07-18T12:05:32;100419.97;;;35.03;15.91
41898;BME280;27576;53.366;-1.498;2022-07-18T12:07:58;100423.19;;;34.97;15.80
41898;BME280;27576;53.366;-1.498;2022-07-18T12:10:24;100421.59;;;34.85;15.76
41898;BME280;27576;53.366;-1.498;2022-07-18T12:12:50;100416.06;;;34.86;16.08
41898;BME280;27576;53.366;-1.498;2022-07-18T12:15:15;100413.97;;;34.90;15.93
41898;BME280;27576;53.366;-1.498;2022-07-18T12:17:49;100400.50;;;34.90;15.99
41898;BME280;27576;53.366;-1.498;2022-07-18T12:20:20;100416.72;;;35.09;17.29
41898;BME280;27576;53.366;-1.498;2022-07-18T12:23:11;100415.06;;;35.18;15.61
41898;BME280;27576;53.366;-1.498;2022-07-18T12:25:41;100410.78;;;35.15;15.60
41898;BME280;27576;53.366;-1.498;2022-07-18T12:28:14;100409.09;;;35.24;16.02
41898;BME280;27576;53.366;-1.498;2022-07-18T12:30:39;100405.13;;;35.28;16.50
41898;BME280;27576;53.366;-1.498;2022-07-18T12:33:07;100416.91;;;35.27;16.02
41898;BME280;27576;53.366;-1.498;2022-07-18T12:35:35;100416.06;;;35.27;16.19
41898;BME280;27576;53.366;-1.498;2022-07-18T12:40:50;100398.63;;;35.31;15.00
41898;BME280;27576;53.366;-1.498;2022-07-18T12:43:29;100389.59;;;35.51;18.66
41898;BME280;27576;53.366;-1.498;2022-07-18T12:45:57;100384.91;;;35.63;15.97
41898;BME280;27576;53.366;-1.498;2022-07-18T12:48:24;100400.09;;;35.74;15.45
41898;BME280;27576;53.366;-1.498;2022-07-18T12:50:58;100395.94;;;35.79;15.48
41898;BME280;27576;53.366;-1.498;2022-07-18T12:53:25;100397.53;;;36.01;15.69
41898;BME280;27576;53.366;-1.498;2022-07-18T12:55:51;100384.97;;;36.20;16.09
41898;BME280;27576;53.366;-1.498;2022-07-18T12:58:16;100378.81;;;36.37;15.78
41898;BME280;27576;53.366;-1.498;2022-07-18T13:00:42;100378.69;;;36.76;15.76
41898;BME280;27576;53.366;-1.498;2022-07-18T13:03:09;100383.97;;;37.23;15.49